createdAt,value
2023-03-26T00:01:46.966Z,97.37
2023-03-26T00:04:15.185Z,96.90
2023-03-26T00:06:44.416Z,98.29
2023-03-26T00:09:14.069Z,96.81
2023-03-26T00:11:42.458Z,96.12
2023-03-26T00:14:14.194Z,96.52
2023-03-26T00:16:43.281Z,96.20
2023-03-26T00:19:11.646Z,96.96
2023-03-26T00:21:39.912Z,97.45
2023-03-26T00:24:15.289Z,98.20
2023-03-26T00:26:44.624Z,96.88
2023-03-26T00:29:13.921Z,96.48
2023-03-26T00:31:46.414Z,96.18
2023-03-26T00:34:15.747Z,95.50
2023-03-26T00:36:44.019Z,96.78
2023-03-26T00:39:14.113Z,96.08
2023-03-26T00:41:43.083Z,95.73
2023-03-26T00:44:11.620Z,95.69
2023-03-26T00:46:39.844Z,96.53
2023-03-26T00:49:10.969Z,96.10
2023-03-26T00:51:39.537Z,96.39
2023-03-26T00:54:08.872Z,96.62
2023-03-26T00:56:38.662Z,95.77
2023-03-26T00:59:06.730Z,95.21
2023-03-26T01:01:34.616Z,95.19
2023-03-26T01:04:35.240Z,96.07
2023-03-26T01:07:10.562Z,96.98
2023-03-26T01:09:44.934Z,96.58
2023-03-26T01:12:17.105Z,96.62
2023-03-26T01:14:46.313Z,95.53
2023-03-26T01:17:15.037Z,96.34
2023-03-26T01:19:49.548Z,95.96
2023-03-26T01:22:20.792Z,96.03
2023-03-26T01:24:56.085Z,96.62
2023-03-26T01:27:33.597Z,96.97
2023-03-26T01:30:11.467Z,97.27
2023-03-26T01:32:51.543Z,96.44
2023-03-26T01:35:30.087Z,96.91
2023-03-26T01:38:10.923Z,97.28
2023-03-26T01:40:47.051Z,96.49
2023-03-26T01:43:23.205Z,95.98
2023-03-26T01:45:52.633Z,96.14
2023-03-26T01:48:21.137Z,96.59
2023-03-26T01:50:53.488Z,96.99
2023-03-26T01:53:21.682Z,96.29
2023-03-26T01:56:02.056Z,95.33
2023-03-26T01:58:36.894Z,95.40
2023-03-26T02:01:16.892Z,96.01
2023-03-26T02:03:51.435Z,95.65
2023-03-26T02:06:25.731Z,95.89
2023-03-26T02:08:57.690Z,96.06
2023-03-26T02:11:34.782Z,96.17
2023-03-26T02:14:05.423Z,96.54
2023-03-26T02:16:33.421Z,95.74
2023-03-26T02:19:01.286Z,96.56
2023-03-26T02:21:29.440Z,97.20
2023-03-26T02:24:02.747Z,96.19
2023-03-26T02:26:37.641Z,97.07
2023-03-26T02:29:12.324Z,97.13
2023-03-26T02:31:43.339Z,96.26
2023-03-26T02:34:11.308Z,97.45
2023-03-26T02:36:42.876Z,97.12
2023-03-26T02:39:11.971Z,97.51
2023-03-26T02:41:42.050Z,97.18
2023-03-26T02:44:12.536Z,96.95
2023-03-26T02:46:58.666Z,96.15
2023-03-26T02:49:48.223Z,96.95
2023-03-26T02:52:33.601Z,97.13
2023-03-26T02:55:01.639Z,96.58
2023-03-26T02:57:31.364Z,95.63
2023-03-26T03:00:17.401Z,96.29
2023-03-26T03:02:48.817Z,97.39
2023-03-26T03:05:48.473Z,98.79
2023-03-26T03:08:39.156Z,98.90
2023-03-26T03:11:22.075Z,99.33
2023-03-26T03:13:54.165Z,96.96
2023-03-26T03:16:29.654Z,96.83
2023-03-26T03:19:01.829Z,97.60
2023-03-26T03:21:40.591Z,97.46
2023-03-26T03:24:11.608Z,98.39
2023-03-26T03:26:47.635Z,97.13
2023-03-26T03:29:43.895Z,96.60
2023-03-26T03:32:32.047Z,97.09
2023-03-26T03:35:05.234Z,97.87
2023-03-26T03:37:33.122Z,97.26
2023-03-26T03:40:01.480Z,96.94
2023-03-26T03:42:32.632Z,95.97
2023-03-26T03:45:05.938Z,94.92
2023-03-26T03:48:00.379Z,94.95
2023-03-26T03:50:36.589Z,96.86
2023-03-26T03:53:30.489Z,95.86
2023-03-26T03:56:01.927Z,96.29
2023-03-26T03:58:48.670Z,96.43
2023-03-26T04:01:26.171Z,97.20
2023-03-26T04:04:00.127Z,99.43
2023-03-26T04:06:41.526Z,97.63
2023-03-26T04:09:11.095Z,98.40
2023-03-26T04:11:39.614Z,98.64
2023-03-26T04:14:27.692Z,97.29
2023-03-26T04:17:06.490Z,97.35
2023-03-26T04:19:38.475Z,97.87
2023-03-26T04:22:09.363Z,96.36
2023-03-26T04:24:44.394Z,96.16
2023-03-26T04:27:44.390Z,96.32
2023-03-26T04:30:21.884Z,96.33
2023-03-26T04:32:58.614Z,96.46
2023-03-26T04:35:30.459Z,95.91
2023-03-26T04:37:58.988Z,96.72
2023-03-26T04:40:34.560Z,97.04
2023-03-26T04:43:26.402Z,97.12
2023-03-26T04:46:07.452Z,99.05
2023-03-26T04:48:43.085Z,98.44
2023-03-26T04:51:18.227Z,98.42
2023-03-26T04:53:52.688Z,97.68
2023-03-26T04:56:48.052Z,97.28
2023-03-26T04:59:34.931Z,97.26
2023-03-26T05:02:07.917Z,97.06
2023-03-26T05:04:49.923Z,98.15
2023-03-26T05:07:22.346Z,98.39
2023-03-26T05:09:53.650Z,99.13
2023-03-26T05:12:35.028Z,98.31
2023-03-26T05:15:07.738Z,98.57
2023-03-26T05:18:04.731Z,98.85
2023-03-26T05:20:42.566Z,99.29
2023-03-26T05:23:11.446Z,99.72
2023-03-26T05:25:59.560Z,100.00
2023-03-26T05:28:28.215Z,100.00
2023-03-26T05:31:03.656Z,98.54
2023-03-26T05:33:37.341Z,98.32
2023-03-26T05:36:15.232Z,98.00
2023-03-26T05:38:49.921Z,98.23
2023-03-26T05:41:36.339Z,97.98
2023-03-26T05:44:04.493Z,99.66
2023-03-26T05:46:32.671Z,99.03
2023-03-26T05:49:01.377Z,98.39
2023-03-26T05:51:35.454Z,100.00
2023-03-26T05:54:38.516Z,99.74
2023-03-26T05:57:09.150Z,99.06
2023-03-26T05:59:56.590Z,99.14
2023-03-26T06:02:57.280Z,98.58
2023-03-26T06:05:45.693Z,99.34
2023-03-26T06:08:20.634Z,99.52
2023-03-26T06:10:58.927Z,99.22
2023-03-26T06:13:27.514Z,100.00
2023-03-26T06:15:57.914Z,100.00
2023-03-26T06:18:33.146Z,100.00
2023-03-26T06:21:19.886Z,100.00
2023-03-26T06:24:00.501Z,100.00
2023-03-26T06:26:41.079Z,100.00
2023-03-26T06:29:31.146Z,99.99
2023-03-26T06:32:19.486Z,99.41
2023-03-26T06:35:07.713Z,99.28
2023-03-26T06:37:35.984Z,99.66
2023-03-26T06:40:06.645Z,100.00
2023-03-26T06:43:11.116Z,100.00
2023-03-26T06:46:11.272Z,100.00
2023-03-26T06:48:39.573Z,99.59
2023-03-26T06:51:27.679Z,100.00
2023-03-26T06:54:18.673Z,100.00
2023-03-26T06:57:21.000Z,100.00
2023-03-26T07:00:10.537Z,100.00
2023-03-26T07:02:56.772Z,100.00
2023-03-26T07:05:43.354Z,100.00
2023-03-26T07:08:31.993Z,100.00
2023-03-26T07:11:36.353Z,100.00
2023-03-26T07:14:27.812Z,100.00
2023-03-26T07:17:09.020Z,100.00
2023-03-26T07:20:08.140Z,100.00
2023-03-26T07:22:36.930Z,100.00
2023-03-26T07:25:09.318Z,100.00
2023-03-26T07:27:59.243Z,100.00
2023-03-26T07:30:59.894Z,100.00
2023-03-26T07:33:47.308Z,99.31
2023-03-26T07:36:34.985Z,97.82
2023-03-26T07:39:37.492Z,97.05
2023-03-26T07:42:35.718Z,99.31
2023-03-26T07:45:30.448Z,96.00
2023-03-26T07:48:16.945Z,99.39
2023-03-26T07:51:10.407Z,98.11
2023-03-26T07:54:04.114Z,97.22
2023-03-26T07:56:48.204Z,95.98
2023-03-26T07:59:52.197Z,95.96
2023-03-26T08:03:15.995Z,96.19
2023-03-26T08:06:01.450Z,96.91
2023-03-26T08:08:56.417Z,98.93
2023-03-26T08:11:57.895Z,98.13
2023-03-26T08:14:37.268Z,96.10
2023-03-26T08:17:11.036Z,93.79
2023-03-26T08:19:49.259Z,90.70
2023-03-26T08:22:26.241Z,88.75
2023-03-26T08:25:20.880Z,90.54
2023-03-26T08:28:01.695Z,95.17
2023-03-26T08:30:30.955Z,88.06
2023-03-26T08:33:00.702Z,84.67
2023-03-26T08:35:29.958Z,86.15
2023-03-26T08:37:58.036Z,85.56
2023-03-26T08:40:54.012Z,89.90
2023-03-26T08:43:49.044Z,88.37
2023-03-26T08:46:48.911Z,89.52
2023-03-26T08:49:45.894Z,93.13
2023-03-26T08:52:38.671Z,91.99
2023-03-26T08:55:23.220Z,92.87
2023-03-26T08:58:37.088Z,94.74
2023-03-26T09:01:23.317Z,91.97
2023-03-26T09:04:22.552Z,92.05
2023-03-26T09:07:22.897Z,95.92
2023-03-26T09:10:33.257Z,87.54
2023-03-26T09:13:43.525Z,88.38
2023-03-26T09:16:54.166Z,87.17
2023-03-26T09:19:55.252Z,89.65
2023-03-26T09:23:07.602Z,86.28
2023-03-26T09:26:04.905Z,87.58
2023-03-26T09:29:11.278Z,87.95
2023-03-26T09:32:24.361Z,87.25
2023-03-26T09:35:13.223Z,85.09
2023-03-26T09:37:58.858Z,85.31
2023-03-26T09:40:38.797Z,84.98
2023-03-26T09:43:37.546Z,84.64
2023-03-26T09:46:21.811Z,80.86
2023-03-26T09:49:08.859Z,81.83
2023-03-26T09:51:55.445Z,83.87
2023-03-26T09:54:51.727Z,86.66
2023-03-26T09:57:36.510Z,80.89
2023-03-26T10:00:22.192Z,78.69
2023-03-26T10:03:15.056Z,76.64
2023-03-26T10:05:58.024Z,75.41
2023-03-26T10:08:44.293Z,79.94
2023-03-26T10:11:21.398Z,86.43
2023-03-26T10:14:00.028Z,90.31
2023-03-26T10:16:39.299Z,87.72
2023-03-26T10:19:31.654Z,86.15
2023-03-26T10:22:09.455Z,84.30
2023-03-26T10:25:00.413Z,86.36
2023-03-26T10:27:42.255Z,84.59
2023-03-26T10:30:40.604Z,84.59
2023-03-26T10:33:18.997Z,87.83
2023-03-26T10:35:57.289Z,84.60
2023-03-26T10:38:37.052Z,81.02
2023-03-26T10:41:12.740Z,81.90
2023-03-26T10:44:08.884Z,85.47
2023-03-26T10:47:15.482Z,83.55
2023-03-26T10:50:04.071Z,83.04
2023-03-26T10:52:38.768Z,82.02
2023-03-26T10:55:15.288Z,82.26
2023-03-26T10:57:46.966Z,80.19
2023-03-26T11:00:18.088Z,81.63
2023-03-26T11:02:55.651Z,79.04
2023-03-26T11:05:47.823Z,82.94
2023-03-26T11:08:31.101Z,86.06
2023-03-26T11:11:10.264Z,86.61
2023-03-26T11:13:50.402Z,87.00
2023-03-26T11:16:26.675Z,87.24
2023-03-26T11:19:00.537Z,84.96
2023-03-26T11:21:37.275Z,84.48
2023-03-26T11:24:37.576Z,84.97
2023-03-26T11:27:15.314Z,84.56
2023-03-26T11:29:51.483Z,83.91
2023-03-26T11:32:23.676Z,83.84
2023-03-26T11:35:00.409Z,84.45
2023-03-26T11:37:34.756Z,84.54
2023-03-26T11:40:07.750Z,83.92
2023-03-26T11:42:35.856Z,84.11
2023-03-26T11:45:07.822Z,85.23
2023-03-26T11:47:41.706Z,85.75
2023-03-26T11:50:16.917Z,87.14
2023-03-26T11:52:47.102Z,89.40
2023-03-26T11:55:15.788Z,90.86
2023-03-26T11:57:51.747Z,91.42
2023-03-26T12:00:23.030Z,90.85
2023-03-26T12:02:51.871Z,92.15
2023-03-26T12:05:22.293Z,91.88
2023-03-26T12:07:57.282Z,95.97
2023-03-26T12:10:29.391Z,91.90
2023-03-26T12:13:00.632Z,88.96
2023-03-26T12:15:30.865Z,94.25
2023-03-26T12:17:59.298Z,97.04
2023-03-26T12:20:38.580Z,100.00
2023-03-26T12:23:08.178Z,100.00
2023-03-26T12:25:38.857Z,100.00
2023-03-26T12:28:18.850Z,100.00
2023-03-26T12:30:55.000Z,99.42
2023-03-26T12:33:27.655Z,98.85
2023-03-26T12:35:57.902Z,100.00
2023-03-26T12:38:32.988Z,100.00
2023-03-26T12:42:36.633Z,98.12
2023-03-26T12:44:51.244Z,98.34
2023-03-26T12:47:56.162Z,96.82
2023-03-26T12:49:35.371Z,97.10
2023-03-26T12:52:19.756Z,96.68
2023-03-26T12:54:57.586Z,100.00
2023-03-26T12:57:30.754Z,100.00
2023-03-26T13:00:11.467Z,100.00
2023-03-26T13:02:58.872Z,100.00
2023-03-26T13:05:43.102Z,100.00
2023-03-26T13:08:28.708Z,100.00
2023-03-26T13:11:01.757Z,100.00
2023-03-26T13:13:56.326Z,100.00
2023-03-26T13:16:33.289Z,100.00
2023-03-26T13:19:07.076Z,100.00
2023-03-26T13:21:47.036Z,100.00
2023-03-26T13:24:29.613Z,100.00
2023-03-26T13:27:12.951Z,100.00
2023-03-26T13:29:56.334Z,100.00
2023-03-26T13:32:35.112Z,100.00
2023-03-26T13:35:17.687Z,100.00
2023-03-26T13:37:53.369Z,100.00
2023-03-26T13:40:27.838Z,100.00
2023-03-26T13:43:15.964Z,100.00
2023-03-26T13:45:55.792Z,100.00
2023-03-26T13:48:29.366Z,100.00
2023-03-26T13:51:03.689Z,100.00
2023-03-26T13:53:38.450Z,100.00
2023-03-26T13:56:09.458Z,100.00
2023-03-26T13:58:43.599Z,100.00
2023-03-26T14:01:17.529Z,98.93
2023-03-26T14:03:54.528Z,96.90
2023-03-26T14:06:33.972Z,95.42
2023-03-26T14:09:06.558Z,93.27
2023-03-26T14:11:47.302Z,93.10
2023-03-26T14:14:21.141Z,95.32
2023-03-26T14:16:54.536Z,96.07
2023-03-26T14:20:14.766Z,91.25
2023-03-26T14:22:52.215Z,91.10
2023-03-26T14:25:31.248Z,91.23
2023-03-26T14:28:17.135Z,95.56
2023-03-26T14:31:19.440Z,98.76
2023-03-26T14:34:25.966Z,97.14
2023-03-26T14:37:27.801Z,95.61
2023-03-26T14:40:14.877Z,95.50
2023-03-26T14:42:48.912Z,95.09
2023-03-26T14:45:39.582Z,91.49
2023-03-26T14:48:38.433Z,94.96
2023-03-26T14:51:19.584Z,92.83
2023-03-26T14:53:52.119Z,90.11
2023-03-26T14:56:47.957Z,91.76
2023-03-26T15:00:07.097Z,91.17
2023-03-26T15:03:34.574Z,93.77
2023-03-26T15:06:27.255Z,96.07
2023-03-26T15:09:27.687Z,97.67
2023-03-26T15:12:12.057Z,97.74
2023-03-26T15:15:26.995Z,99.20
2023-03-26T15:18:15.573Z,100.00
2023-03-26T15:21:16.422Z,99.60
2023-03-26T15:24:09.778Z,99.38
2023-03-26T15:27:12.050Z,99.96
2023-03-26T15:30:02.775Z,98.13
2023-03-26T15:33:06.814Z,95.36
2023-03-26T15:36:09.313Z,97.56
2023-03-26T15:39:08.429Z,100.00
2023-03-26T15:41:45.206Z,98.90
2023-03-26T15:44:40.947Z,98.80
2023-03-26T15:47:37.307Z,99.09
2023-03-26T15:50:19.150Z,99.71
2023-03-26T15:52:56.016Z,98.39
2023-03-26T15:55:33.605Z,100.00
2023-03-26T15:58:11.458Z,99.75
2023-03-26T16:00:50.900Z,100.00
2023-03-26T16:03:31.881Z,100.00
2023-03-26T16:06:30.795Z,100.00
2023-03-26T16:09:17.035Z,100.00
2023-03-26T16:11:54.950Z,100.00
2023-03-26T16:14:25.179Z,100.00
2023-03-26T16:16:55.220Z,100.00
2023-03-26T16:19:49.169Z,100.00
2023-03-26T16:22:43.413Z,100.00
2023-03-26T16:25:30.798Z,100.00
2023-03-26T16:28:27.512Z,100.00
2023-03-26T16:31:38.381Z,99.13
2023-03-26T16:34:42.455Z,99.90
2023-03-26T16:37:36.985Z,98.89
2023-03-26T16:40:34.225Z,97.88
2023-03-26T16:43:26.510Z,96.76
2023-03-26T16:46:01.195Z,96.84
2023-03-26T16:48:36.390Z,94.88
2023-03-26T16:51:14.900Z,95.26
2023-03-26T16:53:51.225Z,95.44
2023-03-26T16:56:31.992Z,94.28
2023-03-26T16:59:07.793Z,93.70
2023-03-26T17:01:42.921Z,94.85
2023-03-26T17:04:17.167Z,92.35
2023-03-26T17:07:09.589Z,93.15
2023-03-26T17:09:46.514Z,93.69
2023-03-26T17:12:23.788Z,93.18
2023-03-26T17:15:07.444Z,92.38
2023-03-26T17:17:58.591Z,92.86
2023-03-26T17:20:36.827Z,93.53
2023-03-26T17:23:17.242Z,93.30
2023-03-26T17:25:58.549Z,93.72
2023-03-26T17:29:01.593Z,94.61
2023-03-26T17:31:41.127Z,94.12
2023-03-26T17:34:34.825Z,93.28
2023-03-26T17:37:05.645Z,92.50
2023-03-26T17:40:36.066Z,92.24
2023-03-26T17:43:06.279Z,90.85
2023-03-26T17:45:39.209Z,91.61
2023-03-26T17:48:17.816Z,91.57
2023-03-26T17:50:53.418Z,91.44
2023-03-26T17:53:25.748Z,90.24
2023-03-26T17:55:54.818Z,89.73
2023-03-26T17:58:28.121Z,88.52
2023-03-26T18:01:05.056Z,87.47
2023-03-26T18:03:37.302Z,85.65
2023-03-26T18:06:09.637Z,87.04
2023-03-26T18:08:50.740Z,85.19
2023-03-26T18:11:38.273Z,82.90
2023-03-26T18:14:30.763Z,82.10
2023-03-26T18:17:00.975Z,81.48
2023-03-26T18:19:31.867Z,80.95
2023-03-26T18:22:04.726Z,79.79
2023-03-26T18:24:37.463Z,80.99
2023-03-26T18:27:09.549Z,81.38
2023-03-26T18:29:38.853Z,82.70
2023-03-26T18:32:22.175Z,80.82
2023-03-26T18:34:57.226Z,80.86
2023-03-26T18:37:28.110Z,80.24
2023-03-26T18:40:02.298Z,78.40
2023-03-26T18:42:32.727Z,79.00
2023-03-26T18:45:05.239Z,78.33
2023-03-26T18:47:33.324Z,79.87
2023-03-26T18:50:02.583Z,77.74
2023-03-26T18:52:33.191Z,76.08
2023-03-26T18:55:03.780Z,74.88
2023-03-26T18:57:31.843Z,76.03
2023-03-26T19:00:15.633Z,77.66
2023-03-26T19:02:43.721Z,76.99
2023-03-26T19:05:16.732Z,74.19
2023-03-26T19:07:47.102Z,73.00
2023-03-26T19:10:21.997Z,74.94
2023-03-26T19:12:56.287Z,73.82
2023-03-26T19:15:25.646Z,73.94
2023-03-26T19:17:59.585Z,75.54
2023-03-26T19:20:33.633Z,75.81
2023-03-26T19:23:01.730Z,75.58
2023-03-26T19:25:35.245Z,73.57
2023-03-26T19:28:03.645Z,74.80
2023-03-26T19:30:34.087Z,73.79
2023-03-26T19:33:13.976Z,73.37
2023-03-26T19:35:45.339Z,72.16
2023-03-26T19:38:25.514Z,73.06
2023-03-26T19:40:55.497Z,71.78
2023-03-26T19:43:23.856Z,71.60
2023-03-26T19:46:00.266Z,71.37
2023-03-26T19:48:45.676Z,71.78
2023-03-26T19:51:20.975Z,72.07
2023-03-26T19:53:52.972Z,70.57
2023-03-26T19:56:21.890Z,71.52
2023-03-26T19:58:50.422Z,71.95
2023-03-26T20:01:20.911Z,72.23
2023-03-26T20:03:52.639Z,72.55
2023-03-26T20:06:33.956Z,73.19
2023-03-26T20:09:10.872Z,74.90
2023-03-26T20:11:39.878Z,74.87
2023-03-26T20:14:13.834Z,75.33
2023-03-26T20:16:43.813Z,76.18
2023-03-26T20:19:14.097Z,76.50
2023-03-26T20:21:44.311Z,76.76
2023-03-26T20:24:14.635Z,76.11
2023-03-26T20:26:42.575Z,76.39
2023-03-26T20:29:11.517Z,75.83
2023-03-26T20:31:41.345Z,74.91
2023-03-26T20:34:19.778Z,74.84
2023-03-26T20:36:54.245Z,74.84
2023-03-26T20:39:22.944Z,72.47
2023-03-26T20:41:51.540Z,72.44
2023-03-26T20:44:20.992Z,72.78
2023-03-26T20:46:50.607Z,73.43
2023-03-26T20:49:19.200Z,72.02
2023-03-26T20:51:47.702Z,73.36
2023-03-26T20:54:19.411Z,73.91
2023-03-26T20:56:49.204Z,75.35
2023-03-26T20:59:22.290Z,75.35
2023-03-26T21:01:51.290Z,74.99
2023-03-26T21:04:20.380Z,73.86
2023-03-26T21:06:48.956Z,74.32
2023-03-26T21:09:23.618Z,73.88
2023-03-26T21:12:00.361Z,73.34
2023-03-26T21:14:32.144Z,74.30
2023-03-26T21:17:00.539Z,73.81
2023-03-26T21:19:29.100Z,72.97
2023-03-26T21:22:04.777Z,71.90
2023-03-26T21:24:46.919Z,73.28
2023-03-26T21:27:26.184Z,71.55
2023-03-26T21:29:54.824Z,71.55
2023-03-26T21:32:24.218Z,72.19
2023-03-26T21:34:58.505Z,71.85
2023-03-26T21:37:27.960Z,71.87
2023-03-26T21:39:59.736Z,72.81
2023-03-26T21:42:29.383Z,71.61
2023-03-26T21:44:57.704Z,71.83
2023-03-26T21:47:26.257Z,71.62
2023-03-26T21:49:54.767Z,71.22
2023-03-26T21:52:23.876Z,71.60
2023-03-26T21:54:52.795Z,71.89
2023-03-26T21:57:43.419Z,71.27
2023-03-26T22:00:16.265Z,71.98
2023-03-26T22:02:56.258Z,72.44
2023-03-26T22:05:31.105Z,71.19
2023-03-26T22:08:02.075Z,72.30
2023-03-26T22:10:30.827Z,72.54
2023-03-26T22:13:00.415Z,72.53
2023-03-26T22:15:30.552Z,72.40
2023-03-26T22:18:00.886Z,72.09
2023-03-26T22:20:29.174Z,72.17
2023-03-26T22:22:57.035Z,72.77
2023-03-26T22:25:25.267Z,72.76
2023-03-26T22:27:53.849Z,72.97
2023-03-26T22:30:23.044Z,72.51
2023-03-26T22:32:51.723Z,73.09
2023-03-26T22:35:20.119Z,73.44
2023-03-26T22:37:48.424Z,73.95
2023-03-26T22:40:17.901Z,73.68
2023-03-26T22:42:45.746Z,73.26
2023-03-26T22:45:13.993Z,73.85
2023-03-26T22:47:43.261Z,72.75
2023-03-26T22:50:12.117Z,73.32
2023-03-26T22:52:40.839Z,73.13
2023-03-26T22:55:10.995Z,72.92
2023-03-26T22:57:39.249Z,73.70
2023-03-26T23:00:16.095Z,73.33
2023-03-26T23:02:46.110Z,73.01
2023-03-26T23:05:14.156Z,73.16
2023-03-26T23:07:42.464Z,72.89
2023-03-26T23:10:11.629Z,72.91
2023-03-26T23:12:39.961Z,73.74
2023-03-26T23:15:09.760Z,74.48
2023-03-26T23:17:38.617Z,74.53
2023-03-26T23:20:14.607Z,73.19
2023-03-26T23:22:43.673Z,74.55
2023-03-26T23:25:12.575Z,73.34
2023-03-26T23:27:41.253Z,74.01
2023-03-26T23:30:11.864Z,72.68
2023-03-26T23:32:40.653Z,72.21
2023-03-26T23:35:11.217Z,72.35
2023-03-26T23:37:42.204Z,72.70
2023-03-26T23:40:12.472Z,72.60
2023-03-26T23:42:40.384Z,72.81
2023-03-26T23:45:09.295Z,73.00
2023-03-26T23:47:37.406Z,72.00
2023-03-26T23:50:07.768Z,71.91
2023-03-26T23:52:37.774Z,71.71
2023-03-26T23:55:06.271Z,70.99
2023-03-26T23:57:35.393Z,71.39
